createdAt,value
2019-01-15T00:00:40.943Z,3.80
2019-01-15T00:03:12.258Z,4.40
2019-01-15T00:05:42.934Z,4.67
2019-01-15T00:08:14.432Z,4.70
2019-01-15T00:10:45.768Z,5.73
2019-01-15T00:13:16.790Z,4.37
2019-01-15T00:15:48.990Z,4.40
2019-01-15T00:18:19.955Z,3.70
2019-01-15T00:20:51.313Z,4.67
2019-01-15T00:23:22.219Z,5.03
2019-01-15T00:25:53.148Z,4.10
2019-01-15T00:28:24.103Z,4.90
2019-01-15T00:30:54.922Z,4.70
2019-01-15T00:33:25.939Z,4.50
2019-01-15T00:35:57.072Z,4.77
2019-01-15T00:38:28.113Z,3.63
2019-01-15T00:40:59.273Z,4.63
2019-01-15T00:43:30.270Z,5.23
2019-01-15T00:46:01.107Z,4.67
2019-01-15T00:48:32.104Z,4.37
2019-01-15T00:51:03.485Z,5.50
2019-01-15T00:53:35.928Z,4.20
2019-01-15T00:56:07.370Z,4.80
2019-01-15T00:58:38.359Z,5.20
2019-01-15T01:01:10.272Z,4.47
2019-01-15T01:03:41.346Z,5.20
2019-01-15T01:06:12.071Z,4.03
2019-01-15T01:08:43.626Z,4.33
2019-01-15T01:11:14.746Z,4.33
2019-01-15T01:13:46.473Z,4.60
2019-01-15T01:16:17.666Z,3.93
2019-01-15T01:18:50.550Z,4.67
2019-01-15T01:21:21.264Z,4.87
2019-01-15T01:23:52.138Z,4.70
2019-01-15T01:26:23.420Z,3.73
2019-01-15T01:28:54.535Z,3.63
2019-01-15T01:31:25.247Z,4.57
2019-01-15T01:33:56.322Z,3.70
2019-01-15T01:36:27.341Z,4.50
2019-01-15T01:38:59.469Z,5.33
2019-01-15T01:41:30.151Z,4.60
2019-01-15T01:44:01.398Z,4.30
2019-01-15T01:46:32.599Z,5.50
2019-01-15T01:49:03.473Z,3.80
2019-01-15T01:51:33.739Z,3.10
2019-01-15T01:54:04.668Z,4.60
2019-01-15T01:56:35.320Z,3.83
2019-01-15T01:59:05.725Z,4.00
2019-01-15T02:01:36.614Z,3.90
2019-01-15T02:04:07.814Z,3.97
2019-01-15T02:06:38.184Z,4.33
2019-01-15T02:09:09.638Z,5.17
2019-01-15T02:11:40.589Z,3.90
2019-01-15T02:14:11.431Z,3.90
2019-01-15T02:16:42.516Z,3.90
2019-01-15T02:19:13.397Z,5.23
2019-01-15T02:21:44.906Z,4.90
2019-01-15T02:24:16.942Z,5.17
2019-01-15T02:26:47.714Z,4.57
2019-01-15T02:29:18.475Z,3.97
2019-01-15T02:31:49.339Z,4.40
2019-01-15T02:34:20.515Z,3.87
2019-01-15T02:36:51.595Z,4.17
2019-01-15T02:39:22.633Z,4.93
2019-01-15T02:41:53.342Z,3.57
2019-01-15T02:44:24.561Z,4.50
2019-01-15T02:46:55.486Z,4.23
2019-01-15T02:49:25.890Z,3.70
2019-01-15T02:51:56.269Z,4.50
2019-01-15T02:54:27.050Z,4.70
2019-01-15T02:56:58.292Z,3.67
2019-01-15T02:59:29.207Z,4.07
2019-01-15T03:02:00.008Z,4.47
2019-01-15T03:04:31.252Z,4.80
2019-01-15T03:07:02.700Z,5.83
2019-01-15T03:09:33.735Z,3.77
2019-01-15T03:12:04.575Z,4.43
2019-01-15T03:14:35.410Z,4.40
2019-01-15T03:17:06.570Z,4.53
2019-01-15T03:19:37.723Z,3.83
2019-01-15T03:22:09.041Z,4.73
2019-01-15T03:24:39.770Z,3.83
2019-01-15T03:27:10.934Z,6.03
2019-01-15T03:29:41.574Z,4.40
2019-01-15T03:32:12.455Z,3.00
2019-01-15T03:34:43.756Z,4.87
2019-01-15T03:37:14.877Z,4.73
2019-01-15T03:39:46.322Z,4.73
2019-01-15T03:42:18.576Z,4.30
2019-01-15T03:44:49.758Z,4.53
2019-01-15T03:47:21.010Z,4.37
2019-01-15T03:49:52.478Z,3.57
2019-01-15T03:52:23.574Z,4.90
2019-01-15T03:54:54.469Z,5.63
2019-01-15T03:57:25.789Z,4.73
2019-01-15T03:59:56.285Z,4.40
2019-01-15T04:02:27.345Z,4.10
2019-01-15T04:04:58.723Z,4.27
2019-01-15T04:07:30.313Z,6.43
2019-01-15T04:10:00.773Z,5.53
2019-01-15T04:12:31.203Z,4.20
2019-01-15T04:15:01.602Z,5.00
2019-01-15T04:17:33.046Z,5.00
2019-01-15T04:20:05.281Z,4.90
2019-01-15T04:22:36.012Z,5.97
2019-01-15T04:25:08.149Z,6.90
2019-01-15T04:27:39.266Z,4.33
2019-01-15T04:30:13.827Z,5.70
2019-01-15T04:32:45.516Z,6.17
2019-01-15T04:35:16.916Z,5.37
2019-01-15T04:37:48.114Z,7.07
2019-01-15T04:40:20.770Z,5.80
2019-01-15T04:42:52.997Z,6.27
2019-01-15T04:45:25.171Z,6.77
2019-01-15T04:47:56.650Z,4.87
2019-01-15T04:50:27.480Z,6.33
2019-01-15T04:53:01.812Z,5.80
2019-01-15T04:55:33.131Z,5.20
2019-01-15T04:58:04.459Z,7.73
2019-01-15T05:00:35.782Z,4.60
2019-01-15T05:03:09.422Z,6.50
2019-01-15T05:05:40.539Z,6.80
2019-01-15T05:08:11.380Z,4.97
2019-01-15T05:10:41.888Z,4.17
2019-01-15T05:13:13.329Z,5.77
2019-01-15T05:15:44.453Z,4.53
2019-01-15T05:18:15.848Z,7.03
2019-01-15T05:20:47.318Z,6.17
2019-01-15T05:23:18.179Z,6.57
2019-01-15T05:25:49.050Z,5.33
2019-01-15T05:28:20.480Z,5.37
2019-01-15T05:30:51.332Z,6.17
2019-01-15T05:33:21.783Z,6.37
2019-01-15T05:35:52.156Z,5.73
2019-01-15T05:38:22.774Z,5.37
2019-01-15T05:40:53.134Z,5.53
2019-01-15T05:43:25.080Z,5.53
2019-01-15T05:45:55.861Z,6.37
2019-01-15T05:48:31.460Z,6.27
2019-01-15T05:51:21.420Z,4.87
2019-01-15T05:53:52.261Z,6.77
2019-01-15T05:56:23.061Z,4.93
2019-01-15T05:58:53.881Z,6.07
2019-01-15T06:01:24.978Z,5.53
2019-01-15T06:04:05.145Z,5.53
2019-01-15T06:06:35.945Z,6.63
2019-01-15T06:09:10.574Z,6.00
2019-01-15T06:11:41.556Z,5.47
2019-01-15T06:14:13.300Z,6.87
2019-01-15T06:16:44.150Z,5.57
2019-01-15T06:19:15.206Z,5.47
2019-01-15T06:21:46.260Z,5.63
2019-01-15T06:24:17.465Z,5.40
2019-01-15T06:26:48.820Z,5.53
2019-01-15T06:29:20.666Z,5.97
2019-01-15T06:31:51.131Z,5.40
2019-01-15T06:34:22.437Z,4.33
2019-01-15T06:36:53.326Z,5.17
2019-01-15T06:39:24.152Z,5.43
2019-01-15T06:41:56.520Z,5.97
2019-01-15T06:44:27.159Z,5.40
2019-01-15T06:46:58.321Z,5.87
2019-01-15T06:49:30.271Z,6.33
2019-01-15T06:52:01.928Z,5.97
2019-01-15T06:54:34.151Z,5.70
2019-01-15T06:57:05.303Z,5.90
2019-01-15T06:59:36.215Z,5.00
2019-01-15T07:02:07.897Z,4.50
2019-01-15T07:04:43.758Z,5.77
2019-01-15T07:07:12.228Z,5.63
2019-01-15T07:09:43.411Z,5.43
2019-01-15T07:12:14.211Z,5.73
2019-01-15T07:14:45.284Z,4.83
2019-01-15T07:17:16.414Z,7.60
2019-01-15T07:19:47.292Z,7.20
2019-01-15T07:22:18.175Z,6.20
2019-01-15T07:24:49.266Z,7.27
2019-01-15T07:27:19.675Z,5.30
2019-01-15T07:29:50.173Z,6.53
2019-01-15T07:32:20.852Z,7.77
2019-01-15T07:34:52.233Z,6.33
2019-01-15T07:37:23.195Z,6.23
2019-01-15T07:39:54.185Z,6.50
2019-01-15T07:42:25.069Z,6.43
2019-01-15T07:44:56.055Z,5.23
2019-01-15T07:47:26.927Z,6.93
2019-01-15T07:49:57.975Z,7.60
2019-01-15T07:52:28.468Z,8.10
2019-01-15T07:54:59.298Z,6.97
2019-01-15T07:57:30.134Z,8.30
2019-01-15T08:00:03.136Z,6.30
2019-01-15T08:02:34.162Z,5.57
2019-01-15T08:05:05.728Z,5.87
2019-01-15T08:07:36.207Z,6.23
2019-01-15T08:10:08.101Z,5.63
2019-01-15T08:12:39.465Z,5.47
2019-01-15T08:15:13.369Z,10.03
2019-01-15T08:17:44.360Z,7.67
2019-01-15T08:20:15.031Z,7.80
2019-01-15T08:22:48.790Z,6.90
2019-01-15T08:25:20.769Z,8.93
2019-01-15T08:27:53.701Z,7.13
2019-01-15T08:30:28.512Z,9.03
2019-01-15T08:32:59.243Z,5.97
2019-01-15T08:35:31.060Z,7.20
2019-01-15T08:38:01.548Z,7.50
2019-01-15T08:40:35.120Z,7.03
2019-01-15T08:43:05.753Z,8.20
2019-01-15T08:45:37.624Z,7.50
2019-01-15T08:48:17.904Z,6.77
2019-01-15T08:50:52.598Z,6.83
2019-01-15T08:53:24.530Z,7.50
2019-01-15T08:55:58.577Z,6.70
2019-01-15T08:58:29.703Z,8.70
2019-01-15T09:01:00.532Z,5.67
2019-01-15T09:03:30.933Z,7.03
2019-01-15T09:06:03.205Z,5.57
2019-01-15T09:08:34.033Z,6.13
2019-01-15T09:11:06.194Z,7.83
2019-01-15T09:13:38.786Z,6.40
2019-01-15T09:16:10.573Z,7.37
2019-01-15T09:18:42.155Z,5.07
2019-01-15T09:21:13.330Z,7.50
2019-01-15T09:23:45.730Z,6.17
2019-01-15T09:26:16.914Z,7.97
2019-01-15T09:28:47.576Z,7.43
2019-01-15T09:31:19.331Z,9.23
2019-01-15T09:33:50.822Z,7.60
2019-01-15T09:36:23.226Z,8.60
2019-01-15T09:38:55.266Z,6.70
2019-01-15T09:41:25.816Z,7.17
2019-01-15T09:43:57.540Z,7.87
2019-01-15T09:46:57.802Z,7.17
2019-01-15T09:49:57.030Z,7.77
2019-01-15T09:52:34.903Z,7.67
2019-01-15T09:55:06.373Z,5.33
2019-01-15T09:57:37.570Z,7.10
2019-01-15T10:00:12.250Z,4.90
2019-01-15T10:02:44.198Z,6.27
2019-01-15T10:05:14.996Z,6.13
2019-01-15T10:07:48.077Z,6.97
2019-01-15T10:10:19.192Z,7.07
2019-01-15T10:12:50.747Z,7.20
2019-01-15T10:15:21.931Z,7.70
2019-01-15T10:17:53.065Z,8.87
2019-01-15T10:20:23.689Z,6.47
2019-01-15T10:22:55.176Z,6.70
2019-01-15T10:25:27.967Z,6.17
2019-01-15T10:27:59.314Z,6.77
2019-01-15T10:30:37.707Z,5.80
2019-01-15T10:33:36.548Z,8.47
2019-01-15T10:36:05.483Z,5.30
2019-01-15T10:38:36.556Z,4.93
2019-01-15T10:41:07.154Z,7.23
2019-01-15T10:43:37.778Z,5.37
2019-01-15T10:46:09.052Z,4.27
2019-01-15T10:48:40.096Z,6.33
2019-01-15T10:51:10.958Z,7.83
2019-01-15T10:53:41.799Z,5.33
2019-01-15T10:56:12.760Z,5.50
2019-01-15T10:58:43.637Z,7.67
2019-01-15T11:01:14.817Z,5.70
2019-01-15T11:03:45.939Z,9.20
2019-01-15T11:06:17.446Z,5.27
2019-01-15T11:08:48.651Z,5.90
2019-01-15T11:11:19.905Z,5.13
2019-01-15T11:13:51.016Z,5.10
2019-01-15T11:16:22.705Z,8.00
2019-01-15T11:18:54.082Z,7.37
2019-01-15T11:21:25.413Z,5.27
2019-01-15T11:23:55.854Z,6.50
2019-01-15T11:26:27.208Z,6.87
2019-01-15T11:28:57.974Z,7.57
2019-01-15T11:31:29.256Z,4.50
2019-01-15T11:34:00.643Z,6.17
2019-01-15T11:36:31.708Z,5.50
2019-01-15T11:39:04.598Z,4.17
2019-01-15T11:41:35.640Z,5.07
2019-01-15T11:44:07.003Z,3.93
2019-01-15T11:46:38.118Z,3.87
2019-01-15T11:49:09.303Z,6.03
2019-01-15T11:51:40.109Z,4.00
2019-01-15T11:54:10.909Z,4.47
2019-01-15T11:56:42.433Z,14.10
2019-01-15T11:59:13.371Z,3.93
2019-01-15T12:01:50.011Z,4.00
2019-01-15T12:04:40.373Z,4.17
2019-01-15T12:07:23.329Z,3.73
2019-01-15T12:13:29.150Z,4.33
2019-01-15T12:16:18.996Z,5.30
2019-01-15T12:19:09.897Z,4.17
2019-01-15T12:21:59.593Z,5.30
2019-01-15T12:24:49.469Z,6.40
2019-01-15T12:27:40.303Z,5.20
2019-01-15T12:30:32.854Z,4.90
2019-01-15T12:33:22.821Z,6.27
2019-01-15T12:36:13.003Z,4.40
2019-01-15T12:38:58.477Z,4.70
2019-01-15T12:41:49.408Z,4.77
2019-01-15T12:44:32.051Z,4.50
2019-01-15T12:47:22.087Z,3.77
2019-01-15T12:50:12.231Z,6.50
2019-01-15T12:53:02.444Z,4.40
2019-01-15T12:55:52.425Z,4.07
2019-01-15T12:58:42.530Z,4.20
2019-01-15T13:01:32.591Z,5.10
2019-01-15T13:04:15.834Z,5.27
2019-01-15T13:07:05.819Z,4.73
2019-01-15T13:09:56.023Z,4.87
2019-01-15T13:12:46.618Z,5.50
2019-01-15T13:15:34.834Z,4.43
2019-01-15T13:18:24.779Z,6.20
2019-01-15T13:21:14.626Z,4.00
2019-01-15T13:24:04.529Z,4.43
2019-01-15T13:26:44.736Z,5.13
2019-01-15T13:29:34.425Z,3.93
2019-01-15T13:32:24.126Z,4.57
2019-01-15T13:35:07.649Z,4.97
2019-01-15T13:37:57.748Z,4.47
2019-01-15T13:40:48.701Z,5.80
2019-01-15T13:43:38.941Z,5.43
2019-01-15T13:46:28.784Z,6.87
2019-01-15T13:49:18.671Z,5.50
2019-01-15T13:52:08.249Z,4.67
2019-01-15T13:54:59.320Z,5.87
2019-01-15T13:57:49.281Z,5.93
2019-01-15T14:00:39.411Z,5.47
2019-01-15T14:03:29.139Z,7.00
2019-01-15T14:06:19.548Z,6.40
2019-01-15T14:09:09.734Z,6.50
2019-01-15T14:11:59.307Z,6.63
2019-01-15T14:14:49.484Z,6.33
2019-01-15T14:17:36.906Z,6.63
2019-01-15T14:20:28.201Z,6.70
2019-01-15T14:23:18.180Z,6.53
2019-01-15T14:26:08.665Z,7.33
2019-01-15T14:28:58.201Z,7.20
2019-01-15T14:31:47.918Z,6.17
2019-01-15T14:34:38.283Z,7.73
2019-01-15T14:37:28.253Z,7.10
2019-01-15T14:40:17.633Z,8.13
2019-01-15T14:43:09.403Z,7.50
2019-01-15T14:46:00.392Z,7.70
2019-01-15T14:48:46.497Z,9.43
2019-01-15T14:51:36.617Z,8.73
2019-01-15T14:54:26.873Z,8.40
2019-01-15T14:57:12.460Z,9.60
2019-01-15T15:00:02.879Z,7.67
2019-01-15T15:02:52.812Z,8.47
2019-01-15T15:05:32.274Z,10.40
2019-01-15T15:08:22.200Z,8.50
2019-01-15T15:11:12.929Z,8.40
2019-01-15T15:14:02.601Z,8.40
2019-01-15T15:16:41.010Z,9.30
2019-01-15T15:19:30.122Z,9.73
2019-01-15T15:22:20.157Z,9.67
2019-01-15T15:24:59.293Z,10.77
2019-01-15T15:27:48.859Z,11.77
2019-01-15T15:30:38.722Z,12.63
2019-01-15T15:33:29.846Z,13.73
2019-01-15T15:36:14.269Z,13.93
2019-01-15T15:39:04.009Z,19.03
2019-01-15T15:41:55.850Z,14.63
2019-01-15T15:44:44.928Z,16.17
2019-01-15T15:47:34.731Z,13.70
2019-01-15T15:50:26.006Z,16.10
2019-01-15T15:53:16.169Z,16.10
2019-01-15T15:56:04.262Z,14.57
2019-01-15T15:58:53.703Z,15.10
2019-01-15T16:01:43.683Z,15.53
2019-01-15T16:04:25.258Z,15.93
2019-01-15T16:07:11.717Z,16.33
2019-01-15T16:10:01.587Z,15.53
2019-01-15T16:12:51.552Z,17.70
2019-01-15T16:15:41.913Z,17.33
2019-01-15T16:18:31.839Z,17.47
2019-01-15T16:21:16.635Z,18.97
2019-01-15T16:24:06.260Z,18.23
2019-01-15T16:26:56.654Z,17.17
2019-01-15T16:29:45.813Z,19.10
2019-01-15T16:32:34.926Z,18.30
2019-01-15T16:35:25.675Z,18.90
2019-01-15T16:38:15.283Z,17.33
2019-01-15T16:41:04.923Z,20.25
2019-01-15T16:43:54.759Z,18.20
2019-01-15T16:46:44.396Z,17.93
2019-01-15T16:49:26.871Z,19.20
2019-01-15T16:52:16.508Z,17.23
2019-01-15T16:55:06.223Z,17.37
2019-01-15T16:57:52.480Z,19.37
2019-01-15T17:00:39.585Z,19.53
2019-01-15T17:03:29.372Z,17.47
2019-01-15T17:06:19.450Z,18.37
2019-01-15T17:09:09.090Z,18.47
2019-01-15T17:11:59.126Z,19.03
2019-01-15T17:14:42.307Z,16.80
2019-01-15T17:17:29.816Z,19.87
2019-01-15T17:20:19.936Z,19.17
2019-01-15T17:23:09.548Z,19.23
2019-01-15T17:25:59.422Z,19.47
2019-01-15T17:28:49.185Z,17.90
2019-01-15T17:31:39.088Z,16.57
2019-01-15T17:34:29.001Z,21.70
2019-01-15T17:37:18.929Z,19.00
2019-01-15T17:40:01.731Z,20.03
2019-01-15T17:42:51.858Z,21.13
2019-01-15T17:45:41.899Z,23.17
2019-01-15T17:48:32.162Z,21.00
2019-01-15T17:51:18.984Z,21.80
2019-01-15T17:54:08.805Z,22.70
2019-01-15T17:56:58.478Z,20.87
2019-01-15T17:59:48.592Z,21.00
2019-01-15T18:02:38.579Z,20.27
2019-01-15T18:05:29.745Z,22.87
2019-01-15T18:08:19.678Z,22.57
2019-01-15T18:11:09.984Z,24.00
2019-01-15T18:13:59.893Z,21.23
2019-01-15T18:16:49.607Z,22.87
2019-01-15T18:19:39.195Z,22.70
2019-01-15T18:22:25.532Z,24.40
2019-01-15T18:25:15.042Z,22.90
2019-01-15T18:28:01.814Z,25.80
2019-01-15T18:30:46.416Z,24.23
2019-01-15T18:33:36.647Z,23.33
2019-01-15T18:36:26.781Z,27.10
2019-01-15T18:39:16.868Z,24.20
2019-01-15T18:42:07.388Z,26.03
2019-01-15T18:44:57.594Z,23.87
2019-01-15T18:47:47.542Z,22.93
2019-01-15T18:50:37.499Z,20.57
2019-01-15T18:53:27.332Z,20.53
2019-01-15T18:56:16.999Z,19.23
2019-01-15T18:59:07.346Z,18.67
2019-01-15T19:01:56.949Z,16.90
2019-01-15T19:04:43.008Z,16.10
2019-01-15T19:07:32.675Z,14.77
2019-01-15T19:10:22.585Z,14.03
2019-01-15T19:13:12.120Z,13.57
2019-01-15T19:16:00.795Z,14.67
2019-01-15T19:18:52.266Z,13.17
2019-01-15T19:21:42.514Z,13.13
2019-01-15T19:24:32.681Z,9.73
2019-01-15T19:27:22.521Z,8.93
2019-01-15T19:30:12.367Z,8.23
2019-01-15T19:33:02.451Z,9.37
2019-01-15T19:35:50.031Z,10.90
2019-01-15T19:38:39.803Z,8.60
2019-01-15T19:41:29.195Z,7.23
2019-01-15T19:44:18.896Z,21.23
2019-01-15T19:47:10.709Z,11.10
2019-01-15T19:49:59.684Z,9.63
2019-01-15T19:53:00.909Z,9.10
2019-01-15T19:55:49.903Z,9.43
2019-01-15T19:58:28.012Z,9.13
2019-01-15T20:01:18.037Z,10.47
2019-01-15T20:04:04.389Z,9.87
2019-01-15T20:07:00.435Z,13.63
2019-01-15T20:09:57.267Z,12.10
2019-01-15T20:12:58.297Z,15.17
2019-01-15T20:16:01.391Z,16.37
2019-01-15T20:19:07.663Z,17.93
2019-01-15T20:22:14.362Z,17.67
2019-01-15T20:25:25.023Z,25.17
2019-01-15T20:28:25.520Z,22.77
2019-01-15T20:31:33.515Z,21.43
2019-01-15T20:34:28.233Z,18.93
2019-01-15T20:37:18.256Z,15.37
2019-01-15T20:40:02.314Z,22.30
2019-01-15T20:43:18.026Z,21.27
2019-01-15T20:46:21.257Z,22.37
2019-01-15T20:49:21.788Z,19.40
2019-01-15T20:52:20.800Z,24.70
2019-01-15T20:55:05.173Z,24.13
2019-01-15T20:57:55.030Z,24.93
2019-01-15T21:00:47.571Z,20.73
2019-01-15T21:03:39.810Z,21.23
2019-01-15T21:06:29.568Z,15.40
2019-01-15T21:09:26.609Z,16.77
2019-01-15T21:12:22.189Z,16.83
2019-01-15T21:15:08.563Z,18.50
2019-01-15T21:18:05.771Z,17.13
2019-01-15T21:20:58.090Z,14.57
2019-01-15T21:23:55.971Z,28.30
2019-01-15T21:26:44.230Z,21.67
2019-01-15T21:29:49.270Z,26.27
2019-01-15T21:32:39.004Z,26.57
2019-01-15T21:35:31.551Z,24.33
2019-01-15T21:38:26.619Z,25.10
2019-01-15T21:41:16.689Z,18.87
2019-01-15T21:44:10.802Z,26.30
2019-01-15T21:47:01.249Z,30.53
2019-01-15T21:49:54.778Z,29.73
2019-01-15T21:52:47.904Z,26.07
2019-01-15T21:55:45.865Z,25.00
2019-01-15T21:58:38.543Z,23.33
2019-01-15T22:01:23.538Z,27.53
2019-01-15T22:04:14.247Z,29.83
2019-01-15T22:07:07.273Z,26.90
2019-01-15T22:09:58.025Z,28.83
2019-01-15T22:12:49.533Z,27.10
2019-01-15T22:15:39.761Z,28.43
2019-01-15T22:18:29.410Z,28.30
2019-01-15T22:21:19.048Z,27.20
2019-01-15T22:24:13.328Z,24.73
2019-01-15T22:27:08.685Z,27.93
2019-01-15T22:29:49.968Z,28.43
2019-01-15T22:32:29.939Z,26.03
2019-01-15T22:35:19.550Z,27.67
2019-01-15T22:38:09.495Z,24.20
2019-01-15T22:40:54.985Z,25.27
2019-01-15T22:43:49.855Z,24.33
2019-01-15T22:46:32.334Z,21.30
2019-01-15T22:49:25.823Z,23.73
2019-01-15T22:52:19.915Z,19.97
2019-01-15T22:55:05.589Z,18.90
2019-01-15T22:58:01.950Z,18.63
2019-01-15T23:00:58.449Z,19.07
2019-01-15T23:03:52.107Z,20.43
2019-01-15T23:06:46.378Z,18.83
2019-01-15T23:09:35.898Z,18.43
2019-01-15T23:12:32.223Z,15.73
2019-01-15T23:15:15.860Z,17.93
2019-01-15T23:18:05.744Z,15.33
2019-01-15T23:20:55.396Z,18.13
2019-01-15T23:23:44.903Z,16.73
2019-01-15T23:26:30.437Z,16.73
2019-01-15T23:29:15.436Z,17.00
2019-01-15T23:31:56.640Z,15.13
2019-01-15T23:34:46.615Z,15.53
2019-01-15T23:37:28.196Z,15.60
2019-01-15T23:40:17.665Z,15.90
2019-01-15T23:43:04.288Z,14.07
2019-01-15T23:45:53.831Z,14.17
2019-01-15T23:48:42.327Z,14.43
2019-01-15T23:51:31.794Z,13.17
2019-01-15T23:54:25.206Z,12.63
2019-01-15T23:57:14.697Z,12.63
